createdAt,value
2023-09-11T00:00:44.249Z,97912.59
2023-09-11T00:03:10.794Z,97913.13
2023-09-11T00:05:37.703Z,97914.22
2023-09-11T00:08:04.872Z,97909.63
2023-09-11T00:10:31.106Z,97905.59
2023-09-11T00:12:57.461Z,97907.75
2023-09-11T00:15:23.711Z,97905.59
2023-09-11T00:17:50.241Z,97898.06
2023-09-11T00:20:16.576Z,97905.06
2023-09-11T00:22:42.887Z,97897.56
2023-09-11T00:25:10.348Z,97892.44
2023-09-11T00:27:36.587Z,97898.34
2023-09-11T00:30:02.841Z,97888.97
2023-09-11T00:32:29.353Z,97890.31
2023-09-11T00:34:55.746Z,97889.75
2023-09-11T00:37:21.975Z,97893.81
2023-09-11T00:39:48.199Z,97885.22
2023-09-11T00:42:14.538Z,97874.75
2023-09-11T00:44:41.032Z,97878.75
2023-09-11T00:47:07.322Z,97871.25
2023-09-11T00:49:33.716Z,97871.78
2023-09-11T00:52:00.003Z,97872.84
2023-09-11T00:54:26.230Z,97875.28
2023-09-11T00:56:52.611Z,97879.81
2023-09-11T00:59:18.916Z,97869.63
2023-09-11T01:01:45.274Z,97866.41
2023-09-11T01:04:11.552Z,97873.91
2023-09-11T01:06:37.785Z,97868.03
2023-09-11T01:09:04.040Z,97876.59
2023-09-11T01:11:30.386Z,97869.09
2023-09-11T01:13:56.708Z,97863.19
2023-09-11T01:16:22.999Z,97869.09
2023-09-11T01:18:49.494Z,97870.41
2023-09-11T01:21:15.704Z,97865.59
2023-09-11T01:23:42.028Z,97863.19
2023-09-11T01:26:08.436Z,97866.38
2023-09-11T01:28:34.730Z,97863.41
2023-09-11T01:31:00.965Z,97861.78
2023-09-11T01:33:27.288Z,97858.56
2023-09-11T01:35:53.675Z,97863.41
2023-09-11T01:38:20.089Z,97858.28
2023-09-11T01:40:46.720Z,97858.81
2023-09-11T01:43:13.130Z,97852.91
2023-09-11T01:45:39.371Z,97856.13
2023-09-11T01:48:05.697Z,97847.53
2023-09-11T01:50:32.049Z,97848.09
2023-09-11T01:52:58.330Z,97848.34
2023-09-11T01:55:24.624Z,97848.63
2023-09-11T01:57:50.871Z,97851.53
2023-09-11T02:00:17.135Z,97845.94
2023-09-11T02:02:43.553Z,97850.75
2023-09-11T02:05:09.924Z,97857.16
2023-09-11T02:07:36.281Z,97847.78
2023-09-11T02:10:02.620Z,97851.78
2023-09-11T02:12:29.228Z,97845.88
2023-09-11T02:14:55.624Z,97847.22
2023-09-11T02:17:22.233Z,97850.19
2023-09-11T02:19:48.640Z,97836.22
2023-09-11T02:22:14.902Z,97854.44
2023-09-11T02:24:41.166Z,97848.81
2023-09-11T02:27:07.425Z,97852.81
2023-09-11T02:29:33.717Z,97847.72
2023-09-11T02:32:00.051Z,97847.16
2023-09-11T02:34:26.299Z,97848.25
2023-09-11T02:36:52.540Z,97843.41
2023-09-11T02:39:18.779Z,97835.88
2023-09-11T02:41:45.096Z,97836.16
2023-09-11T02:44:11.417Z,97839.09
2023-09-11T02:46:37.694Z,97835.09
2023-09-11T02:49:03.948Z,97838.81
2023-09-11T02:51:30.571Z,97838.25
2023-09-11T02:53:56.892Z,97840.41
2023-09-11T02:56:23.168Z,97837.97
2023-09-11T02:58:49.448Z,97835.53
2023-09-11T03:01:15.720Z,97836.63
2023-09-11T03:03:42.289Z,97838.75
2023-09-11T03:06:08.577Z,97838.19
2023-09-11T03:08:34.868Z,97843.81
2023-09-11T03:11:01.145Z,97830.69
2023-09-11T03:13:27.436Z,97838.19
2023-09-11T03:15:53.971Z,97834.94
2023-09-11T03:18:20.392Z,97837.09
2023-09-11T03:23:37.794Z,97830.09
2023-09-11T03:26:04.224Z,97835.72
2023-09-11T03:28:30.474Z,97827.13
2023-09-11T03:30:56.714Z,97835.44
2023-09-11T03:33:23.216Z,97838.34
2023-09-11T03:35:49.863Z,97828.97
2023-09-11T03:38:16.078Z,97828.44
2023-09-11T03:40:42.342Z,97821.72
2023-09-11T03:43:08.632Z,97823.88
2023-09-11T03:45:34.890Z,97822.25
2023-09-11T03:48:01.253Z,97820.09
2023-09-11T03:50:27.562Z,97824.88
2023-09-11T03:52:53.817Z,97822.47
2023-09-11T03:55:20.053Z,97817.66
2023-09-11T03:57:46.296Z,97818.69
2023-09-11T04:00:12.572Z,97814.41
2023-09-11T04:02:39.123Z,97815.47
2023-09-11T04:05:05.503Z,97808.78
2023-09-11T04:07:31.842Z,97804.75
2023-09-11T04:09:58.122Z,97817.56
2023-09-11T04:12:24.351Z,97814.91
2023-09-11T04:14:50.989Z,97814.38
2023-09-11T04:17:17.394Z,97810.31
2023-09-11T04:19:44.315Z,97807.91
2023-09-11T04:22:10.719Z,97810.03
2023-09-11T04:24:37.336Z,97809.47
2023-09-11T04:27:03.620Z,97809.75
2023-09-11T04:29:30.140Z,97809.44
2023-09-11T04:31:57.398Z,97810.53
2023-09-11T04:34:23.796Z,97808.91
2023-09-11T04:36:50.122Z,97809.16
2023-09-11T04:39:16.422Z,97804.06
2023-09-11T04:41:43.526Z,97804.34
2023-09-11T04:44:10.717Z,97805.63
2023-09-11T04:46:36.981Z,97806.13
2023-09-11T04:49:03.240Z,97799.19
2023-09-11T04:51:29.859Z,97800.50
2023-09-11T04:53:56.145Z,97806.09
2023-09-11T04:56:22.427Z,97807.16
2023-09-11T04:58:48.652Z,97805.53
2023-09-11T05:01:14.884Z,97804.72
2023-09-11T05:03:41.236Z,97808.47
2023-09-11T05:06:07.778Z,97807.66
2023-09-11T05:08:56.348Z,97806.06
2023-09-11T05:11:20.421Z,97806.84
2023-09-11T05:13:46.722Z,97803.94
2023-09-11T05:16:13.141Z,97811.44
2023-09-11T05:18:39.921Z,97814.41
2023-09-11T05:21:07.130Z,97813.69
2023-09-11T05:23:35.455Z,97807.38
2023-09-11T05:26:02.206Z,97813.38
2023-09-11T05:28:28.594Z,97810.25
2023-09-11T05:30:54.812Z,97809.53
2023-09-11T05:33:21.079Z,97812.59
2023-09-11T05:35:47.377Z,97816.38
2023-09-11T05:38:13.634Z,97816.97
2023-09-11T05:40:40.006Z,97818.88
2023-09-11T05:43:06.520Z,97819.72
2023-09-11T05:45:32.802Z,97830.44
2023-09-11T05:47:59.186Z,97837.16
2023-09-11T05:50:26.334Z,97836.91
2023-09-11T05:52:52.579Z,97846.53
2023-09-11T05:55:19.357Z,97854.34
2023-09-11T05:57:45.652Z,97859.41
2023-09-11T06:00:12.770Z,97868.28
2023-09-11T06:02:39.365Z,97870.38
2023-09-11T06:05:06.261Z,97884.59
2023-09-11T06:07:32.499Z,97899.34
2023-09-11T06:09:59.228Z,97900.13
2023-09-11T06:12:25.541Z,97902.00
2023-09-11T06:14:53.031Z,97902.78
2023-09-11T06:17:30.099Z,97910.53
2023-09-11T06:20:06.249Z,97914.50
2023-09-11T06:22:33.257Z,97917.97
2023-09-11T06:24:59.614Z,97921.41
2023-09-11T06:27:26.014Z,97916.19
2023-09-11T06:29:55.641Z,97922.31
2023-09-11T06:32:23.308Z,97921.72
2023-09-11T06:34:49.721Z,97921.38
2023-09-11T06:37:15.956Z,97923.41
2023-09-11T06:39:42.214Z,97916.88
2023-09-11T06:42:08.435Z,97930.78
2023-09-11T06:44:35.055Z,97930.16
2023-09-11T06:47:01.312Z,97934.34
2023-09-11T06:49:27.544Z,97936.69
2023-09-11T06:51:53.808Z,97949.47
2023-09-11T06:54:20.047Z,97941.25
2023-09-11T06:56:46.397Z,97941.94
2023-09-11T06:59:13.521Z,97930.84
2023-09-11T07:01:41.127Z,97933.22
2023-09-11T07:04:07.568Z,97930.16
2023-09-11T07:06:34.265Z,97925.19
2023-09-11T07:09:00.600Z,97929.47
2023-09-11T07:11:27.154Z,97935.53
2023-09-11T07:13:53.854Z,97936.69
2023-09-11T07:16:20.201Z,97938.66
2023-09-11T07:18:47.467Z,97938.25
2023-09-11T07:21:14.172Z,97942.41
2023-09-11T07:23:40.449Z,97950.56
2023-09-11T07:26:07.571Z,97947.13
2023-09-11T07:28:33.830Z,97947.47
2023-09-11T07:31:00.377Z,97949.44
2023-09-11T07:33:26.823Z,97949.25
2023-09-11T07:35:53.385Z,97967.13
2023-09-11T07:38:19.693Z,97953.91
2023-09-11T07:40:46.340Z,97954.22
2023-09-11T07:43:12.599Z,97955.88
2023-09-11T07:45:38.846Z,97960.78
2023-09-11T07:48:05.402Z,97961.88
2023-09-11T07:50:31.844Z,97963.28
2023-09-11T07:52:58.862Z,97959.25
2023-09-11T07:55:26.662Z,97974.22
2023-09-11T07:57:55.004Z,97967.97
2023-09-11T08:00:21.498Z,97967.94
2023-09-11T08:02:47.859Z,97976.81
2023-09-11T08:05:14.364Z,97970.22
2023-09-11T08:07:40.674Z,97981.25
2023-09-11T08:10:07.226Z,97974.31
2023-09-11T08:12:33.495Z,97978.75
2023-09-11T08:14:59.766Z,97982.06
2023-09-11T08:17:26.005Z,97990.28
2023-09-11T08:19:56.712Z,97988.75
2023-09-11T08:22:22.960Z,97994.75
2023-09-11T08:24:49.453Z,97993.38
2023-09-11T08:27:15.876Z,97995.16
2023-09-11T08:29:42.253Z,98007.03
2023-09-11T08:32:08.544Z,98000.50
2023-09-11T08:34:34.827Z,97999.66
2023-09-11T08:37:01.234Z,97991.53
2023-09-11T08:39:27.505Z,98001.59
2023-09-11T08:41:53.840Z,97992.44
2023-09-11T08:44:20.773Z,97989.34
2023-09-11T08:46:47.101Z,97977.13
2023-09-11T08:49:14.220Z,97960.16
2023-09-11T08:51:40.559Z,97946.56
2023-09-11T08:54:06.898Z,97938.38
2023-09-11T08:56:33.428Z,97925.88
2023-09-11T08:58:59.712Z,97919.03
2023-09-11T09:01:26.257Z,97910.91
2023-09-11T09:03:52.862Z,97887.06
2023-09-11T09:06:19.394Z,97882.66
2023-09-11T09:08:45.829Z,97858.66
2023-09-11T09:11:12.333Z,97847.34
2023-09-11T09:13:39.420Z,97818.31
2023-09-11T09:16:06.762Z,97799.94
2023-09-11T09:18:33.145Z,97774.25
2023-09-11T09:21:01.539Z,97764.94
2023-09-11T09:23:29.357Z,97754.56
2023-09-11T09:25:55.768Z,97749.91
2023-09-11T09:28:22.860Z,97766.00
2023-09-11T09:30:49.124Z,97764.72
2023-09-11T09:33:15.596Z,97765.38
2023-09-11T09:35:42.074Z,97764.88
2023-09-11T09:38:08.424Z,97758.16
2023-09-11T09:40:34.676Z,97754.97
2023-09-11T09:43:01.427Z,97766.13
2023-09-11T09:45:27.710Z,97755.28
2023-09-11T09:47:54.040Z,97759.94
2023-09-11T09:50:20.481Z,97765.63
2023-09-11T09:52:46.719Z,97771.88
2023-09-11T09:55:14.730Z,97760.53
2023-09-11T09:57:41.103Z,97758.94
2023-09-11T10:00:08.200Z,97760.84
2023-09-11T10:02:34.551Z,97765.47
2023-09-11T10:05:01.280Z,97756.25
2023-09-11T10:07:27.703Z,97762.47
2023-09-11T10:09:54.356Z,97758.13
2023-09-11T10:12:20.610Z,97758.13
2023-09-11T10:14:47.726Z,97747.63
2023-09-11T10:17:14.396Z,97746.19
2023-09-11T10:19:40.738Z,97754.78
2023-09-11T10:22:07.404Z,97761.50
2023-09-11T10:24:34.883Z,97760.38
2023-09-11T10:27:01.337Z,97752.72
2023-09-11T10:29:27.661Z,97764.41
2023-09-11T10:31:54.329Z,97762.16
2023-09-11T10:34:20.728Z,97763.75
2023-09-11T10:36:47.005Z,97772.88
2023-09-11T10:39:13.373Z,97770.31
2023-09-11T10:41:40.357Z,97773.56
2023-09-11T10:44:06.684Z,97773.72
2023-09-11T10:46:32.970Z,97773.06
2023-09-11T10:48:59.216Z,97775.47
2023-09-11T10:51:26.247Z,97771.34
2023-09-11T10:53:52.732Z,97767.00
2023-09-11T10:56:19.272Z,97765.75
2023-09-11T10:58:45.643Z,97751.19
2023-09-11T11:01:11.986Z,97746.41
2023-09-11T11:03:38.448Z,97746.22
2023-09-11T11:06:05.541Z,97742.22
2023-09-11T11:08:31.884Z,97742.53
2023-09-11T11:10:58.216Z,97734.72
2023-09-11T11:13:24.454Z,97732.31
2023-09-11T11:15:51.627Z,97737.25
2023-09-11T11:18:18.294Z,97733.75
2023-09-11T11:23:15.314Z,97726.25
2023-09-11T11:25:42.252Z,97729.28
2023-09-11T11:28:08.500Z,97733.91
2023-09-11T11:30:35.568Z,97720.66
2023-09-11T11:33:01.922Z,97721.47
2023-09-11T11:35:29.157Z,97728.78
2023-09-11T11:37:55.484Z,97726.06
2023-09-11T11:40:22.172Z,97727.19
2023-09-11T11:42:48.615Z,97725.91
2023-09-11T11:45:15.969Z,97728.63
2023-09-11T11:47:43.003Z,97726.72
2023-09-11T11:50:09.332Z,97725.91
2023-09-11T11:52:35.594Z,97728.94
2023-09-11T11:55:02.837Z,97723.50
2023-09-11T11:57:29.606Z,97726.22
2023-09-11T11:59:57.094Z,97724.31
2023-09-11T12:02:23.467Z,97721.63
2023-09-11T12:04:50.837Z,97720.00
2023-09-11T12:07:17.353Z,97731.66
2023-09-11T12:09:46.175Z,97732.47
2023-09-11T12:12:12.562Z,97730.53
2023-09-11T12:14:38.985Z,97722.72
2023-09-11T12:17:05.571Z,97720.00
2023-09-11T12:19:31.795Z,97718.41
2023-09-11T12:21:58.037Z,97717.59
2023-09-11T12:24:24.402Z,97721.13
2023-09-11T12:26:50.648Z,97728.13
2023-09-11T12:29:16.911Z,97718.41
2023-09-11T12:31:43.233Z,97727.31
2023-09-11T12:34:09.709Z,97716.78
2023-09-11T12:36:36.163Z,97715.69
2023-09-11T12:39:02.465Z,97713.75
2023-09-11T12:41:28.960Z,97708.66
2023-09-11T12:43:55.371Z,97708.34
2023-09-11T12:46:21.968Z,97714.91
2023-09-11T12:48:49.049Z,97699.44
2023-09-11T12:51:15.441Z,97701.34
2023-09-11T12:53:41.829Z,97699.75
2023-09-11T12:56:08.262Z,97701.34
2023-09-11T12:58:34.567Z,97697.81
2023-09-11T13:01:01.324Z,97700.53
2023-09-11T13:03:27.756Z,97699.75
2023-09-11T13:05:54.138Z,97700.84
2023-09-11T13:08:20.884Z,97697.31
2023-09-11T13:10:51.805Z,97704.38
2023-09-11T13:13:29.157Z,97700.03
2023-09-11T13:16:01.255Z,97691.91
2023-09-11T13:18:27.750Z,97683.75
2023-09-11T13:20:56.588Z,97688.41
2023-09-11T13:23:22.864Z,97682.19
2023-09-11T13:25:49.197Z,97685.69
2023-09-11T13:28:15.511Z,97680.59
2023-09-11T13:33:12.146Z,97686.03
2023-09-11T13:35:38.519Z,97682.50
2023-09-11T13:38:04.752Z,97685.22
2023-09-11T13:40:31.005Z,97678.16
2023-09-11T13:42:57.258Z,97683.59
2023-09-11T13:45:24.263Z,97680.88
2023-09-11T13:47:50.725Z,97675.78
2023-09-11T13:50:17.507Z,97675.78
2023-09-11T13:52:44.226Z,97673.38
2023-09-11T13:55:10.632Z,97679.63
2023-09-11T13:57:36.940Z,97673.38
2023-09-11T14:00:03.261Z,97671.81
2023-09-11T14:02:30.855Z,97672.56
2023-09-11T14:04:57.186Z,97672.56
2023-09-11T14:07:23.418Z,97664.75
2023-09-11T14:09:49.662Z,97662.84
2023-09-11T14:12:16.410Z,97670.19
2023-09-11T14:14:42.842Z,97669.41
2023-09-11T14:17:09.064Z,97667.03
2023-09-11T14:19:35.313Z,97673.22
2023-09-11T14:22:01.847Z,97664.31
2023-09-11T14:24:28.091Z,97665.41
2023-09-11T14:26:54.344Z,97661.88
2023-09-11T14:29:21.351Z,97661.09
2023-09-11T14:31:48.223Z,97662.22
2023-09-11T14:34:14.568Z,97656.78
2023-09-11T14:36:40.990Z,97660.63
2023-09-11T14:39:07.259Z,97659.00
2023-09-11T14:41:33.530Z,97657.44
2023-09-11T14:43:59.878Z,97657.44
2023-09-11T14:46:26.305Z,97654.72
2023-09-11T14:48:53.801Z,97655.03
2023-09-11T14:51:20.168Z,97656.94
2023-09-11T14:53:46.546Z,97659.66
2023-09-11T14:56:13.274Z,97652.66
2023-09-11T14:58:39.925Z,97648.31
2023-09-11T15:01:07.911Z,97649.44
2023-09-11T15:03:34.598Z,97650.25
2023-09-11T15:06:01.824Z,97647.81
2023-09-11T15:08:29.099Z,97644.03
2023-09-11T15:10:55.346Z,97644.34
2023-09-11T15:13:21.596Z,97646.25
2023-09-11T15:15:48.130Z,97639.25
2023-09-11T15:18:15.235Z,97645.75
2023-09-11T15:20:41.643Z,97639.53
2023-09-11T15:23:08.140Z,97646.88
2023-09-11T15:25:34.349Z,97639.84
2023-09-11T15:28:00.834Z,97639.84
2023-09-11T15:30:27.306Z,97642.56
2023-09-11T15:32:53.874Z,97646.41
2023-09-11T15:35:20.174Z,97645.91
2023-09-11T15:37:47.722Z,97650.53
2023-09-11T15:40:13.999Z,97644.28
2023-09-11T15:42:40.326Z,97643.50
2023-09-11T15:45:06.556Z,97642.69
2023-09-11T15:47:33.006Z,97646.53
2023-09-11T15:49:59.659Z,97644.13
2023-09-11T15:52:26.745Z,97642.50
2023-09-11T15:54:53.050Z,97641.72
2023-09-11T15:57:19.335Z,97642.50
2023-09-11T15:59:45.700Z,97641.72
2023-09-11T16:02:12.810Z,97641.25
2023-09-11T16:04:39.579Z,97643.16
2023-09-11T16:07:06.526Z,97647.00
2023-09-11T16:09:32.883Z,97644.56
2023-09-11T16:11:59.543Z,97645.38
2023-09-11T16:14:25.987Z,97648.41
2023-09-11T16:16:52.312Z,97644.09
2023-09-11T16:19:18.583Z,97653.34
2023-09-11T16:21:44.848Z,97647.09
2023-09-11T16:24:11.425Z,97642.00
2023-09-11T16:26:37.798Z,97646.66
2023-09-11T16:29:04.037Z,97638.81
2023-09-11T16:31:30.421Z,97645.03
2023-09-11T16:33:57.039Z,97647.25
2023-09-11T16:36:23.413Z,97642.16
2023-09-11T16:38:50.289Z,97639.44
2023-09-11T16:41:16.788Z,97644.88
2023-09-11T16:43:43.180Z,97641.66
2023-09-11T16:46:10.263Z,97639.28
2023-09-11T16:48:36.570Z,97648.22
2023-09-11T16:51:03.486Z,97644.19
2023-09-11T16:53:29.825Z,97644.53
2023-09-11T16:55:56.113Z,97643.72
2023-09-11T16:58:22.358Z,97640.53
2023-09-11T17:00:48.652Z,97638.94
2023-09-11T17:03:16.037Z,97636.53
2023-09-11T17:05:42.356Z,97636.03
2023-09-11T17:08:08.675Z,97638.75
2023-09-11T17:10:35.354Z,97618.94
2023-09-11T17:13:01.765Z,97635.09
2023-09-11T17:15:28.324Z,97630.78
2023-09-11T17:17:55.847Z,97633.00
2023-09-11T17:20:22.153Z,97628.69
2023-09-11T17:22:48.400Z,97624.38
2023-09-11T17:25:14.672Z,97626.63
2023-09-11T17:27:41.027Z,97625.00
2023-09-11T17:30:07.302Z,97626.44
2023-09-11T17:32:33.785Z,97622.13
2023-09-11T17:35:01.598Z,97632.16
2023-09-11T17:37:27.924Z,97628.19
2023-09-11T17:39:54.230Z,97622.25
2023-09-11T17:42:20.509Z,97631.50
2023-09-11T17:44:47.116Z,97631.03
2023-09-11T17:47:13.497Z,97634.06
2023-09-11T17:49:39.758Z,97637.81
2023-09-11T17:52:05.975Z,97631.13
2023-09-11T17:54:32.250Z,97638.75
2023-09-11T17:56:58.668Z,97635.56
2023-09-11T17:59:24.921Z,97638.59
2023-09-11T18:01:51.565Z,97642.38
2023-09-11T18:04:17.969Z,97644.63
2023-09-11T18:06:44.344Z,97643.03
2023-09-11T18:09:10.762Z,97644.47
2023-09-11T18:11:37.173Z,97645.88
2023-09-11T18:14:03.404Z,97647.28
2023-09-11T18:16:29.704Z,97651.09
2023-09-11T18:18:56.129Z,97648.69
2023-09-11T18:21:23.346Z,97651.72
2023-09-11T18:23:50.735Z,97650.13
2023-09-11T18:26:17.055Z,97659.66
2023-09-11T18:28:43.625Z,97656.47
2023-09-11T18:31:10.072Z,97654.06
2023-09-11T18:33:36.506Z,97654.38
2023-09-11T18:36:03.118Z,97660.88
2023-09-11T18:38:29.582Z,97658.81
2023-09-11T18:40:55.956Z,97661.81
2023-09-11T18:43:22.595Z,97664.84
2023-09-11T18:45:48.864Z,97665.94
2023-09-11T18:48:15.417Z,97659.25
2023-09-11T18:50:41.764Z,97664.16
2023-09-11T18:53:08.004Z,97666.06
2023-09-11T18:55:34.729Z,97665.56
2023-09-11T18:58:00.987Z,97659.66
2023-09-11T19:00:27.436Z,97659.97
2023-09-11T19:02:53.863Z,97665.69
2023-09-11T19:05:20.310Z,97664.13
2023-09-11T19:07:46.618Z,97666.31
2023-09-11T19:10:13.601Z,97665.81
2023-09-11T19:12:39.974Z,97666.94
2023-09-11T19:15:06.245Z,97661.03
2023-09-11T19:17:32.579Z,97663.22
2023-09-11T19:19:59.304Z,97660.00
2023-09-11T19:22:26.468Z,97659.50
2023-09-11T19:24:52.711Z,97663.34
2023-09-11T19:27:18.996Z,97660.13
2023-09-11T19:29:45.368Z,97658.53
2023-09-11T19:32:13.022Z,97660.75
2023-09-11T19:34:39.708Z,97663.78
2023-09-11T19:37:05.974Z,97654.34
2023-09-11T19:39:32.319Z,97657.34
2023-09-11T19:41:58.617Z,97655.75
2023-09-11T19:44:24.840Z,97654.97
2023-09-11T19:46:51.098Z,97652.56
2023-09-11T19:49:17.312Z,97655.56
2023-09-11T19:51:43.713Z,97652.38
2023-09-11T19:54:10.011Z,97653.47
2023-09-11T19:56:37.358Z,97654.59
2023-09-11T19:59:03.654Z,97659.50
2023-09-11T20:01:31.255Z,97655.97
2023-09-11T20:03:58.929Z,97649.31
2023-09-11T20:06:25.360Z,97652.78
2023-09-11T20:08:51.667Z,97646.09
2023-09-11T20:11:17.977Z,97649.13
2023-09-11T20:13:44.195Z,97642.91
2023-09-11T20:16:10.501Z,97634.41
2023-09-11T20:18:37.201Z,97644.59
2023-09-11T20:21:03.543Z,97637.59
2023-09-11T20:23:30.620Z,97632.50
2023-09-11T20:25:56.849Z,97635.53
2023-09-11T20:28:23.233Z,97638.22
2023-09-11T20:30:49.737Z,97629.63
2023-09-11T20:33:16.189Z,97629.91
2023-09-11T20:35:42.527Z,97638.03
2023-09-11T20:38:08.754Z,97635.59
2023-09-11T20:40:35.010Z,97636.72
2023-09-11T20:43:01.349Z,97637.03
2023-09-11T20:45:27.685Z,97629.22
2023-09-11T20:47:54.103Z,97628.41
2023-09-11T20:50:20.448Z,97622.22
2023-09-11T20:52:46.968Z,97619.00
2023-09-11T20:55:13.260Z,97619.00
2023-09-11T20:57:39.961Z,97624.72
2023-09-11T21:00:06.619Z,97616.91
2023-09-11T21:02:33.225Z,97618.81
2023-09-11T21:04:59.617Z,97620.72
2023-09-11T21:07:26.137Z,97612.13
2023-09-11T21:09:52.372Z,97613.22
2023-09-11T21:12:18.911Z,97613.22
2023-09-11T21:14:45.467Z,97615.41
2023-09-11T21:17:11.728Z,97613.78
2023-09-11T21:19:37.952Z,97612.22
2023-09-11T21:22:04.261Z,97618.69
2023-09-11T21:24:30.539Z,97619.81
2023-09-11T21:26:56.973Z,97617.44
2023-09-11T21:29:23.276Z,97618.22
2023-09-11T21:31:49.516Z,97622.31
2023-09-11T21:34:15.778Z,97618.81
2023-09-11T21:36:42.053Z,97625.34
2023-09-11T21:39:08.358Z,97625.34
2023-09-11T21:41:34.730Z,97620.25
2023-09-11T21:44:01.006Z,97622.13
2023-09-11T21:46:27.420Z,97628.66
2023-09-11T21:48:53.757Z,97627.03
2023-09-11T21:51:20.017Z,97618.13
2023-09-11T21:53:51.666Z,97630.03
2023-09-11T21:56:23.497Z,97623.06
2023-09-11T21:58:49.818Z,97626.03
2023-09-11T22:01:16.081Z,97629.84
2023-09-11T22:03:42.780Z,97632.56
2023-09-11T22:06:09.296Z,97632.56
2023-09-11T22:08:35.572Z,97621.25
2023-09-11T22:11:01.868Z,97629.34
2023-09-11T22:13:28.268Z,97615.03
2023-09-11T22:15:54.577Z,97603.63
2023-09-11T22:18:20.867Z,97620.25
2023-09-11T22:20:47.819Z,97618.66
2023-09-11T22:23:14.137Z,97613.56
2023-09-11T22:25:40.468Z,97623.25
2023-09-11T22:28:06.733Z,97615.44
2023-09-11T22:30:33.041Z,97623.56
2023-09-11T22:32:59.449Z,97618.16
2023-09-11T22:35:25.795Z,97623.03
2023-09-11T22:37:53.111Z,97622.28
2023-09-11T22:40:19.321Z,97625.25
2023-09-11T22:42:45.574Z,97618.25
2023-09-11T22:45:11.900Z,97615.56
2023-09-11T22:47:38.227Z,97613.97
2023-09-11T22:55:45.112Z,97614.56
2023-09-11T22:58:11.803Z,97606.75
2023-09-11T23:00:38.120Z,97615.97
2023-09-11T23:03:04.517Z,97610.88
2023-09-11T23:05:30.970Z,97615.47
2023-09-11T23:07:57.353Z,97613.88
2023-09-11T23:10:23.597Z,97608.75
2023-09-11T23:12:49.849Z,97607.97
2023-09-11T23:15:16.217Z,97609.88
2023-09-11T23:17:42.732Z,97603.16
2023-09-11T23:20:09.011Z,97603.16
2023-09-11T23:22:35.239Z,97599.69
2023-09-11T23:25:01.509Z,97597.28
2023-09-11T23:27:28.157Z,97592.16
2023-09-11T23:29:54.455Z,97601.38
2023-09-11T23:32:20.701Z,97594.38
2023-09-11T23:34:46.995Z,97584.66
2023-09-11T23:37:13.300Z,97593.88
2023-09-11T23:39:39.941Z,97590.66
2023-09-11T23:42:06.293Z,97589.06
2023-09-11T23:44:32.555Z,97592.06
2023-09-11T23:46:58.750Z,97589.66
2023-09-11T23:49:25.716Z,97588.84
2023-09-11T23:51:52.100Z,97587.25
2023-09-11T23:54:18.465Z,97586.72
2023-09-11T23:56:44.774Z,97594.06
2023-09-11T23:59:11.021Z,97591.63
